createdAt,value
2023-04-28T00:00:53.460Z,4.03
2023-04-28T00:05:06.406Z,5.53
2023-04-28T00:09:18.148Z,3.85
2023-04-28T00:13:29.764Z,5.35
2023-04-28T00:17:41.390Z,4.77
2023-04-28T00:21:53.064Z,4.07
2023-04-28T00:26:04.793Z,3.57
2023-04-28T00:30:16.556Z,5.53
2023-04-28T00:34:29.965Z,5.97
2023-04-28T00:38:41.542Z,2.97
2023-04-28T00:42:53.137Z,6.47
2023-04-28T00:47:05.613Z,4.90
2023-04-28T00:51:17.567Z,3.53
2023-04-28T00:55:33.160Z,4.90
2023-04-28T00:59:44.841Z,3.72
2023-04-28T01:03:56.818Z,3.70
2023-04-28T01:08:09.443Z,4.28
2023-04-28T01:12:21.591Z,3.47
2023-04-28T01:16:35.939Z,4.60
2023-04-28T01:20:47.823Z,4.82
2023-04-28T01:25:00.379Z,3.63
2023-04-28T01:29:12.519Z,9.50
2023-04-28T01:33:24.151Z,4.07
2023-04-28T01:37:35.757Z,6.50
2023-04-28T01:41:47.368Z,4.07
2023-04-28T01:45:59.000Z,7.47
2023-04-28T01:50:11.466Z,4.53
2023-04-28T01:54:23.112Z,2.87
2023-04-28T01:58:34.923Z,4.80
2023-04-28T02:02:46.759Z,4.47
2023-04-28T02:06:59.035Z,5.07
2023-04-28T02:11:11.619Z,4.90
2023-04-28T02:15:23.175Z,5.70
2023-04-28T02:19:34.781Z,3.93
2023-04-28T02:23:46.546Z,3.57
2023-04-28T02:27:58.095Z,6.57
2023-04-28T02:32:10.935Z,4.47
2023-04-28T02:36:22.608Z,3.17
2023-04-28T02:40:34.197Z,3.57
2023-04-28T02:44:45.735Z,5.03
2023-04-28T02:48:57.287Z,3.57
2023-04-28T02:53:08.879Z,4.57
2023-04-28T02:57:20.594Z,3.97
2023-04-28T03:01:32.287Z,4.90
2023-04-28T03:05:46.223Z,8.47
2023-04-28T03:09:57.717Z,4.27
2023-04-28T03:14:09.340Z,4.57
2023-04-28T03:18:22.467Z,4.47
2023-04-28T03:22:34.524Z,4.60
2023-04-28T03:26:46.275Z,4.30
2023-04-28T03:30:58.160Z,3.53
2023-04-28T03:35:10.069Z,3.53
2023-04-28T03:39:23.192Z,6.30
2023-04-28T03:43:37.329Z,4.03
2023-04-28T03:47:58.779Z,6.37
2023-04-28T03:52:11.142Z,3.57
2023-04-28T03:56:23.005Z,4.73
2023-04-28T04:00:34.717Z,5.97
2023-04-28T04:04:46.540Z,4.67
2023-04-28T04:08:58.340Z,5.00
2023-04-28T04:13:10.079Z,4.43
2023-04-28T04:17:21.794Z,4.43
2023-04-28T04:21:33.431Z,4.87
2023-04-28T04:25:45.466Z,6.90
2023-04-28T04:29:57.355Z,6.20
2023-04-28T04:34:08.946Z,6.47
2023-04-28T04:38:20.533Z,8.23
2023-04-28T04:42:33.309Z,5.77
2023-04-28T04:46:53.084Z,7.03
2023-04-28T04:51:05.965Z,4.67
2023-04-28T04:55:19.054Z,5.20
2023-04-28T04:59:30.711Z,7.57
2023-04-28T05:03:52.414Z,6.13
2023-04-28T05:08:05.989Z,7.17
2023-04-28T05:12:18.460Z,7.77
2023-04-28T05:16:30.494Z,11.20
2023-04-28T05:20:54.190Z,6.23
2023-04-28T05:25:06.920Z,6.57
2023-04-28T05:29:18.662Z,7.70
2023-04-28T05:33:30.239Z,8.40
2023-04-28T05:37:45.018Z,9.20
2023-04-28T05:41:58.675Z,10.90
2023-04-28T05:46:28.489Z,9.17
2023-04-28T05:50:42.715Z,6.87
2023-04-28T05:54:55.809Z,7.80
2023-04-28T05:59:07.687Z,9.23
2023-04-28T06:03:19.741Z,9.93
2023-04-28T06:07:32.424Z,12.73
2023-04-28T06:11:44.134Z,10.47
2023-04-28T06:15:56.079Z,9.27
2023-04-28T06:20:10.771Z,14.57
2023-04-28T06:24:22.975Z,10.97
2023-04-28T06:28:38.022Z,12.60
2023-04-28T06:32:52.265Z,14.00
2023-04-28T06:37:04.117Z,13.27
2023-04-28T06:41:16.132Z,11.70
2023-04-28T06:45:31.512Z,14.80
2023-04-28T06:49:44.712Z,12.60
2023-04-28T06:53:56.258Z,14.70
2023-04-28T06:58:07.856Z,13.17
2023-04-28T07:02:19.615Z,15.75
2023-04-28T07:06:32.450Z,15.43
2023-04-28T07:10:43.979Z,14.63
2023-04-28T07:14:56.189Z,16.52
2023-04-28T07:19:07.769Z,14.65
2023-04-28T07:23:19.504Z,10.52
2023-04-28T07:27:31.133Z,15.10
2023-04-28T07:31:43.981Z,15.00
2023-04-28T07:35:55.696Z,14.55
2023-04-28T07:40:07.740Z,16.50
2023-04-28T07:44:19.831Z,14.85
2023-04-28T07:48:32.569Z,16.58
2023-04-28T07:52:44.693Z,14.75
2023-04-28T07:56:58.177Z,13.98
2023-04-28T08:01:09.911Z,15.80
2023-04-28T08:05:21.805Z,22.55
2023-04-28T08:09:35.546Z,11.48
2023-04-28T08:13:47.858Z,15.63
2023-04-28T08:18:00.013Z,21.08
2023-04-28T08:22:12.376Z,12.80
2023-04-28T08:26:25.977Z,13.60
2023-04-28T08:30:38.812Z,13.63
2023-04-28T08:34:50.484Z,13.13
2023-04-28T08:39:04.193Z,13.80
2023-04-28T08:43:16.359Z,11.85
2023-04-28T08:47:38.377Z,9.77
2023-04-28T08:51:58.434Z,12.32
2023-04-28T08:56:13.811Z,11.85
2023-04-28T09:00:25.632Z,15.05
2023-04-28T09:04:37.672Z,10.82
2023-04-28T09:08:49.654Z,11.52
2023-04-28T09:13:01.342Z,12.02
2023-04-28T09:17:14.448Z,14.88
2023-04-28T09:21:26.966Z,13.57
2023-04-28T09:25:38.712Z,10.05
2023-04-28T09:29:53.339Z,12.55
2023-04-28T09:34:05.059Z,12.82
2023-04-28T09:38:17.285Z,11.13
2023-04-28T09:42:37.360Z,10.75
2023-04-28T09:46:49.083Z,10.00
2023-04-28T09:51:03.863Z,9.75
2023-04-28T09:55:15.932Z,13.75
2023-04-28T09:59:29.049Z,12.75
2023-04-28T10:03:41.918Z,13.07
2023-04-28T10:07:55.466Z,10.85
2023-04-28T10:12:07.284Z,12.00
2023-04-28T10:16:19.744Z,11.18
2023-04-28T10:20:31.909Z,16.05
2023-04-28T10:25:12.381Z,9.68
2023-04-28T10:29:27.913Z,10.82
2023-04-28T10:33:40.755Z,11.18
2023-04-28T10:38:14.953Z,11.82
2023-04-28T10:42:59.062Z,12.63
2023-04-28T10:47:11.681Z,16.98
2023-04-28T10:51:24.498Z,12.27
2023-04-28T10:55:41.939Z,13.65
2023-04-28T11:00:29.315Z,12.18
2023-04-28T11:05:13.510Z,12.80
2023-04-28T11:09:31.438Z,11.48
2023-04-28T11:13:46.689Z,12.18
2023-04-28T11:18:25.515Z,9.73
2023-04-28T11:22:37.807Z,9.50
2023-04-28T11:26:49.833Z,7.63
2023-04-28T11:31:12.632Z,7.60
2023-04-28T11:35:24.385Z,8.70
2023-04-28T11:39:36.084Z,7.55
2023-04-28T11:43:48.264Z,8.23
2023-04-28T11:48:05.862Z,9.27
2023-04-28T11:52:18.775Z,9.25
2023-04-28T11:56:32.116Z,8.82
2023-04-28T12:00:43.955Z,11.23
2023-04-28T12:04:55.828Z,12.15
2023-04-28T12:09:21.479Z,9.50
2023-04-28T12:13:33.400Z,10.93
2023-04-28T12:17:45.747Z,10.45
2023-04-28T12:22:08.221Z,9.65
2023-04-28T12:26:29.095Z,10.75
2023-04-28T12:30:44.012Z,10.02
2023-04-28T12:34:55.943Z,9.05
2023-04-28T12:39:14.016Z,10.15
2023-04-28T12:43:28.347Z,10.90
2023-04-28T12:47:40.198Z,9.25
2023-04-28T12:51:52.069Z,8.82
2023-04-28T12:56:05.178Z,8.55
2023-04-28T13:00:18.147Z,7.72
2023-04-28T13:04:30.276Z,6.03
2023-04-28T13:08:43.186Z,6.35
2023-04-28T13:12:57.702Z,8.27
2023-04-28T13:17:15.313Z,7.00
2023-04-28T13:21:31.664Z,8.00
2023-04-28T13:25:43.493Z,6.25
2023-04-28T13:30:00.821Z,7.90
2023-04-28T13:34:30.765Z,5.57
2023-04-28T13:38:51.462Z,5.75
2023-04-28T13:43:03.818Z,5.28
2023-04-28T13:47:15.590Z,5.80
2023-04-28T13:51:28.781Z,4.85
2023-04-28T13:55:40.670Z,4.68
2023-04-28T13:59:54.442Z,6.13
2023-04-28T14:04:06.883Z,5.18
2023-04-28T14:08:20.630Z,4.50
2023-04-28T14:12:32.712Z,4.07
2023-04-28T14:16:45.344Z,5.13
2023-04-28T14:20:57.141Z,3.10
2023-04-28T14:25:09.521Z,4.80
2023-04-28T14:29:23.852Z,3.50
2023-04-28T14:33:35.862Z,3.33
2023-04-28T14:37:47.877Z,8.95
2023-04-28T14:41:59.781Z,3.75
2023-04-28T14:46:11.853Z,3.17
2023-04-28T14:50:23.657Z,3.50
2023-04-28T14:54:36.079Z,2.67
2023-04-28T14:58:48.625Z,2.60
2023-04-28T15:03:04.051Z,3.95
2023-04-28T15:07:15.981Z,2.55
2023-04-28T15:11:27.839Z,3.63
2023-04-28T15:15:40.386Z,3.30
2023-04-28T15:19:52.290Z,4.00
2023-04-28T15:24:04.156Z,5.30
2023-04-28T15:28:16.051Z,6.28
2023-04-28T15:32:30.351Z,5.47
2023-04-28T15:36:43.769Z,5.22
2023-04-28T15:40:55.713Z,5.07
2023-04-28T15:45:10.426Z,5.88
2023-04-28T15:49:22.747Z,5.97
2023-04-28T15:53:34.640Z,5.40
2023-04-28T15:57:48.312Z,5.57
2023-04-28T16:02:00.312Z,7.20
2023-04-28T16:06:12.209Z,6.43
2023-04-28T16:10:24.096Z,8.68
2023-04-28T16:14:37.468Z,20.70
2023-04-28T16:18:49.445Z,6.18
2023-04-28T16:23:01.222Z,7.15
2023-04-28T16:27:13.268Z,11.23
2023-04-28T16:31:25.058Z,8.70
2023-04-28T16:35:36.882Z,9.70
2023-04-28T16:39:49.062Z,6.47
2023-04-28T16:44:00.951Z,8.07
2023-04-28T16:48:16.128Z,6.28
2023-04-28T16:52:28.054Z,7.60
2023-04-28T16:56:39.960Z,10.75
2023-04-28T17:00:52.298Z,6.32
2023-04-28T17:05:04.167Z,7.40
2023-04-28T17:09:16.726Z,7.95
2023-04-28T17:13:28.484Z,8.75
2023-04-28T17:17:40.355Z,9.88
2023-04-28T17:21:54.723Z,7.85
2023-04-28T17:26:06.501Z,21.38
2023-04-28T17:30:18.572Z,21.77
2023-04-28T17:34:30.780Z,14.20
2023-04-28T17:38:42.590Z,6.13
2023-04-28T17:42:54.666Z,7.70
2023-04-28T17:47:06.602Z,3.75
2023-04-28T17:51:19.079Z,3.65
2023-04-28T17:55:32.066Z,3.45
2023-04-28T17:59:45.327Z,10.70
2023-04-28T18:03:58.602Z,6.53
2023-04-28T18:08:10.637Z,3.47
2023-04-28T18:12:24.149Z,2.97
2023-04-28T18:16:37.482Z,2.92
2023-04-28T18:20:56.548Z,2.20
2023-04-28T18:25:08.943Z,2.40
2023-04-28T18:29:21.263Z,2.75
2023-04-28T18:33:33.429Z,2.92
2023-04-28T18:37:46.016Z,3.50
2023-04-28T18:42:00.198Z,4.20
2023-04-28T18:46:17.451Z,3.17
2023-04-28T18:50:29.909Z,2.50
2023-04-28T18:54:41.792Z,4.00
2023-04-28T18:58:53.513Z,3.30
2023-04-28T19:03:05.844Z,2.63
2023-04-28T19:07:18.492Z,2.97
2023-04-28T19:11:30.595Z,2.28
2023-04-28T19:16:07.499Z,3.20
2023-04-28T19:20:19.387Z,4.30
2023-04-28T19:24:31.190Z,4.93
2023-04-28T19:28:43.376Z,4.57
2023-04-28T19:32:55.329Z,6.68
2023-04-28T19:37:13.944Z,5.13
2023-04-28T19:41:25.738Z,8.23
2023-04-28T19:45:38.468Z,13.68
2023-04-28T19:49:52.023Z,11.48
2023-04-28T19:54:04.098Z,23.15
2023-04-28T19:58:16.323Z,15.10
2023-04-28T20:02:28.229Z,11.30
2023-04-28T20:06:40.554Z,17.88
2023-04-28T20:10:54.538Z,14.90
2023-04-28T20:15:07.395Z,18.27
2023-04-28T20:19:19.994Z,20.27
2023-04-28T20:23:31.740Z,20.48
2023-04-28T20:27:47.045Z,23.08
2023-04-28T20:31:59.145Z,20.80
2023-04-28T20:36:18.587Z,22.77
2023-04-28T20:40:30.876Z,18.92
2023-04-28T20:44:47.892Z,23.17
2023-04-28T20:49:00.274Z,21.77
2023-04-28T20:53:12.752Z,23.98
2023-04-28T20:57:24.860Z,19.92
2023-04-28T21:01:37.175Z,21.80
2023-04-28T21:05:49.475Z,22.77
2023-04-28T21:10:01.431Z,24.17
2023-04-28T21:14:15.406Z,22.70
2023-04-28T21:18:27.343Z,23.85
2023-04-28T21:22:39.083Z,21.85
2023-04-28T21:26:51.317Z,22.17
2023-04-28T21:31:04.189Z,23.42
2023-04-28T21:35:16.467Z,24.02
2023-04-28T21:39:28.213Z,27.48
2023-04-28T21:43:43.401Z,24.80
2023-04-28T21:47:57.194Z,33.05
2023-04-28T21:52:09.522Z,33.20
2023-04-28T21:56:21.359Z,36.78
2023-04-28T22:00:42.076Z,33.75
2023-04-28T22:04:57.505Z,39.05
2023-04-28T22:09:09.528Z,41.10
2023-04-28T22:13:23.478Z,48.25
2023-04-28T22:17:35.982Z,40.78
2023-04-28T22:21:49.795Z,39.95
2023-04-28T22:26:02.283Z,38.47
2023-04-28T22:30:14.175Z,32.35
2023-04-28T22:34:25.886Z,30.63
2023-04-28T22:38:37.696Z,28.00
2023-04-28T22:42:49.459Z,27.48
2023-04-28T22:47:01.099Z,25.27
2023-04-28T22:51:12.902Z,23.52
2023-04-28T22:55:24.469Z,23.98
2023-04-28T22:59:36.015Z,25.08
2023-04-28T23:03:50.644Z,25.52
2023-04-28T23:08:02.867Z,24.83
2023-04-28T23:12:14.732Z,20.63
2023-04-28T23:16:26.323Z,21.73
2023-04-28T23:20:38.041Z,21.08
2023-04-28T23:24:49.651Z,23.35
2023-04-28T23:29:01.255Z,19.63
2023-04-28T23:33:12.865Z,22.70
2023-04-28T23:37:24.452Z,22.42
2023-04-28T23:41:35.984Z,20.58
2023-04-28T23:45:47.542Z,23.50
2023-04-28T23:49:59.147Z,23.45
2023-04-28T23:54:11.632Z,26.25
2023-04-28T23:58:23.278Z,23.15
